Hernando, MS (38632)

5:19 PM CST on November 27, 2014 (GMT -0600)
Oak Manor S/D | Change Station
CLOSE
Current Station
Personal Weather Station
Location: Hernando, MS
Elevation: 259 ft
Nearby Weather Stations

Elev 259 ft 34.82 °N, 90.04 °W | Updated 8 seconds ago

Partly Cloudy
Partly Cloudy
39.5 °F
Feels Like 40 °F
N
0.0
Wind Variable Wind from NNE
Gusts 0.0 mph

Today
High -- | Low -- °F
--% Chance of Precip.
Yesterday
High -- | Low -- °F
Precip. -- in
6:45 AM 4:49 PM
Waxing Crescent, 34% visible
Pressure 30.49 in
Visibility 10.0 miles
Clouds Few 3800 ft
Scattered Clouds 25000 ft
Windchill 40 °F
Dew Point 31 °F
Humidity 71%
Rainfall 0.00 in
Snow Depth Not available.
UV 0 out of 12
Pollen .30 out of 12
Air Quality Not available.
Flu Activity Not available.
METAR KMEM 272254Z 32004KT 10SM FEW038 SCT250 04/M03 A3048 RMK AO2 SLP324 T00441028 $

More Conditions Fewer Conditions

Pressure 30.49 in
Visibility 10.0 miles
Clouds Few 3800 ft
Scattered Clouds 25000 ft
Windchill 40 °F
Dew Point 31 °F
Humidity 71%
Rainfall 0.00 in
Snow Depth Not available.
UV 0 out of 12
Pollen .30 out of 12
Air Quality Not available.
Flu Activity Not available.
METAR KMEM 272254Z 32004KT 10SM FEW038 SCT250 04/M03 A3048 RMK AO2 SLP324 T00441028 $

More Conditions Fewer Conditions

10-Day Weather Forecast

Almanac

Astronomy

Nov. 27, 2014 Rise Set
Actual Time
Civil Twilight
Nautical Twilight
Astronomical Twilight
Moon
Length of Visible Light
Length of Day
Tomorrow will be .
, % of the Moon is Illuminated

Today's Extremes

State Highs State Lows

Community

WunderPhotos

Upload Photos

1,774,135 photos uploaded!

WunderBlogs® & News

Nearby

Air Quality

  Air Quality AQ Index Pollutant
Not available.

Snow Depth

Station Depth Elevation

Earthquake Activity

City Distance Mag. Time & Date
Minimum magnitude displayed is 2.5.

Coastal Water Temperatures

Place Temperature

Nearby Weather Stations